createdAt,value
2019-01-31T00:01:35.746Z,15.10
2019-01-31T00:07:06.093Z,15.50
2019-01-31T00:12:36.741Z,14.83
2019-01-31T00:18:14.358Z,15.00
2019-01-31T00:24:00.267Z,13.70
2019-01-31T00:29:48.119Z,14.53
2019-01-31T00:35:36.591Z,15.30
2019-01-31T00:41:02.871Z,15.00
2019-01-31T00:46:56.121Z,15.33
2019-01-31T00:52:42.953Z,15.37
2019-01-31T00:58:07.900Z,16.37
2019-01-31T01:03:45.689Z,15.80
2019-01-31T01:09:18.422Z,16.50
2019-01-31T01:15:06.546Z,15.37
2019-01-31T01:20:46.247Z,15.83
2019-01-31T01:26:39.084Z,17.47
2019-01-31T01:32:01.949Z,15.80
2019-01-31T01:37:33.832Z,16.27
2019-01-31T01:42:59.669Z,17.23
2019-01-31T01:48:47.526Z,18.30
2019-01-31T01:54:26.471Z,16.20
2019-01-31T01:59:53.535Z,16.30
2019-01-31T02:05:45.899Z,16.60
2019-01-31T02:11:21.169Z,16.60
2019-01-31T02:17:15.154Z,16.67
2019-01-31T02:22:29.245Z,14.93
2019-01-31T02:27:59.502Z,15.30
2019-01-31T02:33:53.559Z,16.40
2019-01-31T02:39:53.146Z,16.37
2019-01-31T02:45:50.055Z,15.50
2019-01-31T02:51:17.917Z,16.13
2019-01-31T02:57:04.058Z,15.73
2019-01-31T03:02:25.658Z,16.17
2019-01-31T03:08:29.013Z,16.10
2019-01-31T03:14:10.187Z,14.47
2019-01-31T03:19:46.544Z,16.67
2019-01-31T03:25:25.446Z,15.93
2019-01-31T03:31:28.352Z,17.40
2019-01-31T03:37:11.381Z,16.80
2019-01-31T03:43:14.399Z,16.40
2019-01-31T03:48:35.529Z,17.00
2019-01-31T03:54:04.440Z,31.30
2019-01-31T03:59:32.145Z,16.17
2019-01-31T04:04:50.032Z,15.90
2019-01-31T04:09:56.489Z,15.87
2019-01-31T04:14:59.956Z,15.27
2019-01-31T04:20:03.543Z,15.10
2019-01-31T04:25:09.822Z,13.37
2019-01-31T04:30:15.574Z,13.93
2019-01-31T04:35:18.893Z,13.13
2019-01-31T04:40:30.929Z,13.10
2019-01-31T04:45:40.140Z,14.83
2019-01-31T04:50:46.310Z,14.20
2019-01-31T04:55:52.718Z,15.67
2019-01-31T05:00:55.997Z,16.30
2019-01-31T05:05:59.318Z,16.10
2019-01-31T05:11:02.881Z,15.57
2019-01-31T05:16:06.423Z,16.63
2019-01-31T05:21:09.733Z,16.17
2019-01-31T05:26:13.145Z,17.77
2019-01-31T05:31:16.557Z,18.43
2019-01-31T05:36:19.922Z,19.60
2019-01-31T05:41:23.243Z,19.27
2019-01-31T05:46:26.621Z,18.90
2019-01-31T05:51:35.867Z,18.80
2019-01-31T05:56:39.181Z,19.27
2019-01-31T06:01:42.506Z,20.00
2019-01-31T06:06:46.079Z,19.97
2019-01-31T06:11:49.416Z,20.90
2019-01-31T06:16:52.531Z,20.63
2019-01-31T06:21:55.909Z,19.13
2019-01-31T06:27:07.991Z,17.40
2019-01-31T06:32:14.511Z,20.47
2019-01-31T06:37:17.948Z,18.83
2019-01-31T06:42:21.180Z,20.50
2019-01-31T06:47:24.595Z,20.67
2019-01-31T06:52:28.161Z,19.23
2019-01-31T06:57:31.676Z,19.77
2019-01-31T07:02:35.192Z,20.57
2019-01-31T07:07:40.881Z,18.90
2019-01-31T07:12:44.202Z,19.60
2019-01-31T07:17:47.680Z,20.60
2019-01-31T07:22:58.056Z,20.40
2019-01-31T07:28:01.494Z,18.97
2019-01-31T07:33:06.292Z,19.63
2019-01-31T07:38:09.676Z,20.70
2019-01-31T07:43:12.985Z,20.60
2019-01-31T07:48:21.856Z,19.03
2019-01-31T07:53:28.089Z,20.40
2019-01-31T07:58:31.573Z,20.90
2019-01-31T08:03:34.801Z,19.57
2019-01-31T08:08:47.104Z,18.63
2019-01-31T08:13:50.998Z,17.60
2019-01-31T08:18:54.368Z,19.93
2019-01-31T08:23:59.930Z,19.60
2019-01-31T08:29:03.258Z,19.33
2019-01-31T08:34:13.074Z,18.53
2019-01-31T08:39:16.411Z,19.30
2019-01-31T08:44:20.024Z,18.00
2019-01-31T08:49:23.334Z,19.93
2019-01-31T08:54:26.675Z,19.03
2019-01-31T08:59:30.141Z,18.00
2019-01-31T09:04:33.548Z,16.93
2019-01-31T09:09:42.902Z,18.60
2019-01-31T09:14:46.139Z,17.00
2019-01-31T09:19:51.130Z,17.90
2019-01-31T09:25:09.852Z,16.50
2019-01-31T09:30:59.941Z,18.37
2019-01-31T09:36:25.162Z,19.00
2019-01-31T09:42:01.542Z,18.70
2019-01-31T09:47:47.867Z,19.00
2019-01-31T09:53:48.009Z,17.67
2019-01-31T09:59:27.364Z,19.10
2019-01-31T10:04:46.343Z,18.10
2019-01-31T10:10:43.151Z,18.27
2019-01-31T10:16:23.685Z,18.10
2019-01-31T10:22:04.580Z,16.33
2019-01-31T10:27:55.400Z,18.03
2019-01-31T10:33:36.099Z,17.00
2019-01-31T10:39:13.811Z,16.63
2019-01-31T10:44:45.279Z,17.30
2019-01-31T10:50:26.067Z,17.10
2019-01-31T10:55:44.186Z,14.10
2019-01-31T11:01:47.206Z,16.47
2019-01-31T11:07:42.156Z,16.50
2019-01-31T11:13:06.277Z,15.23
2019-01-31T11:19:15.615Z,13.30
2019-01-31T11:24:47.212Z,12.80
2019-01-31T11:30:56.342Z,12.27
2019-01-31T11:36:31.499Z,12.40
2019-01-31T11:41:59.795Z,11.63
2019-01-31T11:47:33.318Z,12.00
2019-01-31T11:53:24.142Z,11.60
2019-01-31T11:59:16.483Z,10.13
2019-01-31T12:04:23.085Z,9.67
2019-01-31T12:09:27.116Z,9.20
2019-01-31T12:14:30.939Z,8.70
2019-01-31T12:19:39.660Z,8.33
2019-01-31T12:24:43.397Z,7.77
2019-01-31T12:29:54.327Z,7.07
2019-01-31T12:34:57.634Z,6.40
2019-01-31T12:40:01.420Z,6.00
2019-01-31T12:45:06.674Z,5.57
2019-01-31T12:50:24.443Z,6.10
2019-01-31T12:55:35.309Z,6.90
2019-01-31T13:00:38.823Z,6.63
2019-01-31T13:05:42.260Z,6.30
2019-01-31T13:10:45.574Z,6.67
2019-01-31T13:15:52.066Z,7.43
2019-01-31T13:20:55.378Z,6.93
2019-01-31T13:26:01.870Z,5.83
2019-01-31T13:31:05.175Z,6.10
2019-01-31T13:36:15.139Z,6.20
2019-01-31T13:41:18.550Z,5.90
2019-01-31T13:46:22.229Z,6.17
2019-01-31T13:51:25.484Z,5.90
2019-01-31T13:56:28.902Z,6.07
2019-01-31T14:01:32.188Z,6.77
2019-01-31T14:06:35.521Z,6.93
2019-01-31T14:11:38.990Z,6.50
2019-01-31T14:16:47.683Z,6.00
2019-01-31T14:21:47.606Z,6.20
2019-01-31T14:26:50.863Z,6.13
2019-01-31T14:31:54.133Z,6.10
2019-01-31T14:36:57.422Z,6.10
2019-01-31T14:42:01.101Z,6.53
2019-01-31T14:47:04.718Z,5.27
2019-01-31T14:52:25.337Z,5.10
2019-01-31T14:57:28.852Z,5.73
2019-01-31T15:02:32.368Z,6.43
2019-01-31T15:07:35.712Z,5.83
2019-01-31T15:12:39.147Z,5.87
2019-01-31T15:17:42.426Z,5.57
2019-01-31T15:22:45.927Z,6.50
2019-01-31T15:27:52.094Z,5.20
2019-01-31T15:32:55.467Z,6.13
2019-01-31T15:38:01.787Z,5.33
2019-01-31T15:43:05.945Z,6.60
2019-01-31T15:48:10.737Z,5.80
2019-01-31T15:53:14.334Z,5.47
2019-01-31T15:58:19.356Z,9.00
2019-01-31T16:03:23.825Z,5.60
2019-01-31T16:08:30.145Z,5.50
2019-01-31T16:13:35.240Z,6.60
2019-01-31T16:18:40.391Z,6.50
2019-01-31T16:23:43.867Z,6.60
2019-01-31T16:28:50.182Z,10.37
2019-01-31T16:33:53.660Z,10.40
2019-01-31T16:38:57.175Z,8.60
2019-01-31T16:44:03.593Z,7.03
2019-01-31T16:49:07.928Z,6.73
2019-01-31T16:54:11.410Z,6.70
2019-01-31T16:59:16.322Z,6.40
2019-01-31T17:04:19.704Z,5.90
2019-01-31T17:09:24.922Z,6.50
2019-01-31T17:14:33.904Z,5.90
2019-01-31T17:19:37.482Z,5.60
2019-01-31T17:24:41.003Z,6.03
2019-01-31T17:29:44.920Z,6.33
2019-01-31T17:34:48.438Z,6.17
2019-01-31T17:39:51.928Z,6.10
2019-01-31T17:44:55.100Z,6.37
2019-01-31T17:49:58.575Z,6.93
2019-01-31T17:55:01.986Z,8.73
2019-01-31T18:00:12.210Z,8.20
2019-01-31T18:05:15.736Z,8.43
2019-01-31T18:10:20.009Z,8.20
2019-01-31T18:15:23.635Z,8.80
2019-01-31T18:20:29.985Z,12.90
2019-01-31T18:25:35.695Z,7.70
2019-01-31T18:30:39.030Z,7.60
2019-01-31T18:35:42.243Z,7.03
2019-01-31T18:40:45.633Z,7.30
2019-01-31T18:45:53.557Z,7.70
2019-01-31T18:50:57.086Z,6.90
2019-01-31T18:56:00.375Z,8.07
2019-01-31T19:01:05.854Z,7.10
2019-01-31T19:06:09.397Z,7.70
2019-01-31T19:11:14.072Z,7.27
2019-01-31T19:16:19.776Z,6.37
2019-01-31T19:21:22.610Z,6.23
2019-01-31T19:26:25.442Z,7.47
2019-01-31T19:31:28.980Z,6.90
2019-01-31T19:36:32.467Z,8.87
2019-01-31T19:41:37.756Z,7.07
2019-01-31T19:46:41.541Z,7.23
2019-01-31T19:51:44.703Z,7.10
2019-01-31T19:56:51.195Z,8.20
2019-01-31T20:01:54.585Z,8.60
2019-01-31T20:07:23.864Z,8.70
2019-01-31T20:12:28.932Z,9.10
2019-01-31T20:17:32.201Z,8.40
2019-01-31T20:22:35.464Z,8.93
2019-01-31T20:27:38.883Z,8.23
2019-01-31T20:32:43.956Z,9.10
2019-01-31T20:37:50.380Z,13.30
2019-01-31T20:42:53.999Z,10.00
2019-01-31T20:47:57.616Z,10.10
2019-01-31T20:53:07.505Z,9.90
2019-01-31T20:58:10.846Z,10.63
2019-01-31T21:03:16.999Z,10.30
2019-01-31T21:08:23.404Z,10.17
2019-01-31T21:13:26.690Z,9.97
2019-01-31T21:18:30.026Z,9.87
2019-01-31T21:23:35.023Z,11.43
2019-01-31T21:28:41.611Z,11.00
2019-01-31T21:33:44.987Z,10.37
2019-01-31T21:38:48.469Z,10.83
2019-01-31T21:43:51.952Z,11.17
2019-01-31T21:48:55.515Z,11.70
2019-01-31T21:54:01.747Z,11.30
2019-01-31T21:59:09.765Z,12.20
2019-01-31T22:04:13.345Z,11.83
2019-01-31T22:09:16.618Z,12.67
2019-01-31T22:14:22.799Z,11.83
2019-01-31T22:19:29.355Z,11.87
2019-01-31T22:24:38.960Z,12.23
2019-01-31T22:29:42.377Z,12.33
2019-01-31T22:34:45.713Z,13.20
2019-01-31T22:39:50.379Z,12.40
2019-01-31T22:44:55.247Z,12.90
2019-01-31T22:49:58.584Z,12.33
2019-01-31T22:55:01.979Z,13.30
2019-01-31T23:00:52.160Z,13.30
2019-01-31T23:05:55.675Z,12.77
2019-01-31T23:10:59.036Z,14.03
2019-01-31T23:16:04.591Z,13.30
2019-01-31T23:21:13.698Z,13.80
2019-01-31T23:26:16.958Z,13.37
2019-01-31T23:31:20.256Z,12.93
2019-01-31T23:36:23.356Z,14.00
2019-01-31T23:41:26.733Z,14.17
2019-01-31T23:46:30.064Z,15.10
2019-01-31T23:51:33.453Z,14.00
2019-01-31T23:56:36.968Z,13.93
